Overview Statistics Trail Chart Weather Telemetry Raw packets
 

This is the latest recevied weather packets stored in our database for station/object VU3OPZ-13. If no packets are shown the sender has not sent any weather packets the latest 10 day(s).

<< 2 3 4 5 6 7 8 >>
Time Temp. Humidity Pressure Rain* Wind** Luminosity Snow
1788221517 20.56° C 94% 1010 hPa 0 mm - - -
1788219713 20.56° C 94% 1010 hPa 0 mm - - -
1788217908 21.11° C 93% 1010 hPa 0 mm - - -
1788216104 21.11° C 93% 1010 hPa 0 mm - - -
1788214300 21.11° C 92% 1010 hPa 0 mm - - -
1788212495 21.11° C 93% 1010 hPa 0 mm - - -
1788210691 21.11° C 91% 1010 hPa 0 mm - - -
1788208887 21.11° C 91% 1010 hPa 0 mm - - -
1788207083 21.11° C 90% 1011 hPa 0 mm - - -
1788205278 21.11° C 90% 1011 hPa 0 mm - - -
1788203474 21.67° C 90% 1011 hPa 0 mm - - -
1788201670 21.67° C 90% 1011 hPa 0 mm - - -
1788199866 21.11° C 89% 1012 hPa 0 mm - - -
1788198061 21.11° C 89% 1012 hPa 0 mm - - -
1788196256 21.67° C 87% 1012 hPa 0 mm - - -
1788194452 21.67° C 87% 1012 hPa 0 mm - - -
1788192647 22.22° C 85% 1012 hPa 0 mm - - -
1788190843 22.22° C 85% 1012 hPa 0 mm - - -
1788189038 22.78° C 82% 1012 hPa 0 mm - - -
1788187233 22.78° C 82% 1012 hPa 0 mm - - -
1788185428 23.89° C 79% 1011 hPa 0 mm - - -
1788183624 23.89° C 78% 1011 hPa 0 mm - - -
1788181819 25° C 70% 1010 hPa 0 mm - - -
1788180014 25° C 70% 1010 hPa 0 mm - - -
1788178210 26.67° C 63% 1009 hPa 0 mm - - -

* Rain latest hour (hover to see other rain measurements)
** Current wind speed in m/s (hover to see current wind gust speed)